Terminal Aerodrome Forecast
Issued by NWS Twin Cities, MN

Current Version | Previous Version | Text Only | Print | Product List | Glossary On
Versions: 1 2 3 4 5 6 7 8 9 10 11 12 13 14 15
000
FTUS43 KMPX 271130
TAFEAU
TAF
KEAU 271130Z 2712/2812 VRB03KT P6SM SKC
     FM271600 27007KT P6SM SCT150 BKN250
     FM272000 27007KT P6SM OVC080
     FM280200 24003KT P6SM SCT080 BKN150=

USA.gov is the U.S. government's official web portal to all federal, state and local government web resources and services.